createdAt,value
2022-11-10T00:00:11.317Z,30.08
2022-11-10T00:01:51.584Z,29.70
2022-11-10T00:05:18.335Z,31.85
2022-11-10T00:06:35.336Z,24.05
2022-11-10T00:07:45.100Z,36.97
2022-11-10T00:08:51.109Z,22.60
2022-11-10T00:10:08.914Z,35.00
2022-11-10T00:11:13.335Z,36.63
2022-11-10T00:12:25.620Z,39.47
2022-11-10T00:13:35.466Z,24.63
2022-11-10T00:15:03.491Z,28.98
2022-11-10T00:16:30.284Z,34.67
2022-11-10T00:17:37.843Z,27.85
2022-11-10T00:18:42.776Z,28.95
2022-11-10T00:19:48.469Z,24.75
2022-11-10T00:20:56.812Z,34.25
2022-11-10T00:22:25.841Z,24.23
2022-11-10T00:25:17.010Z,32.13
2022-11-10T00:26:22.053Z,36.08
2022-11-10T00:27:42.637Z,23.27
2022-11-10T00:29:05.859Z,31.65
2022-11-10T00:30:12.960Z,33.22
2022-11-10T00:31:18.086Z,29.65
2022-11-10T00:32:29.166Z,38.10
2022-11-10T00:33:38.561Z,30.60
2022-11-10T00:34:42.972Z,43.78
2022-11-10T00:35:53.761Z,30.05
2022-11-10T00:37:01.608Z,26.50
2022-11-10T00:38:11.190Z,33.15
2022-11-10T00:39:18.652Z,25.80
2022-11-10T00:42:08.910Z,34.38
2022-11-10T00:44:34.887Z,28.05
2022-11-10T00:45:51.478Z,44.65
2022-11-10T00:47:11.295Z,37.30
2022-11-10T00:50:57.873Z,29.33
2022-11-10T00:52:06.690Z,26.17
2022-11-10T00:53:12.719Z,23.30
2022-11-10T00:54:21.335Z,24.77
2022-11-10T00:55:27.307Z,23.85
2022-11-10T00:56:33.546Z,22.75
2022-11-10T00:57:44.568Z,29.33
2022-11-10T00:59:03.337Z,33.28
2022-11-10T01:00:13.979Z,28.25
2022-11-10T01:01:27.022Z,29.27
2022-11-10T01:02:36.286Z,23.25
2022-11-10T01:04:06.566Z,23.55
2022-11-10T01:06:01.348Z,20.95
2022-11-10T01:07:38.998Z,24.63
2022-11-10T01:08:53.994Z,26.70
2022-11-10T01:10:02.656Z,25.35
2022-11-10T01:13:28.027Z,20.23
2022-11-10T01:15:02.929Z,23.20
2022-11-10T01:16:19.884Z,33.28
2022-11-10T01:18:07.985Z,23.92
2022-11-10T01:20:05.167Z,23.20
2022-11-10T01:21:21.432Z,27.88
2022-11-10T01:23:02.563Z,22.85
2022-11-10T01:24:22.284Z,27.25
2022-11-10T01:25:26.582Z,27.50
2022-11-10T01:26:33.549Z,23.05
2022-11-10T01:27:37.845Z,18.02
2022-11-10T01:28:42.866Z,24.05
2022-11-10T01:29:46.810Z,27.20
2022-11-10T01:30:51.435Z,23.77
2022-11-10T01:31:56.656Z,29.42
2022-11-10T01:33:00.945Z,18.40
2022-11-10T01:34:06.132Z,29.45
2022-11-10T01:35:10.808Z,22.92
2022-11-10T01:36:17.987Z,16.00
2022-11-10T01:37:21.988Z,30.70
2022-11-10T01:38:32.951Z,22.20
2022-11-10T01:39:44.047Z,23.98
2022-11-10T01:40:48.424Z,25.33
2022-11-10T01:41:59.519Z,33.53
2022-11-10T01:43:08.139Z,22.95
2022-11-10T01:44:31.999Z,28.13
2022-11-10T01:46:11.351Z,23.63
2022-11-10T01:47:17.893Z,29.80
2022-11-10T01:48:55.192Z,31.77
2022-11-10T01:49:59.701Z,15.77
2022-11-10T01:51:22.017Z,25.02
2022-11-10T01:52:30.014Z,23.40
2022-11-10T01:53:44.889Z,29.85
2022-11-10T01:54:50.950Z,24.70
2022-11-10T01:55:58.975Z,22.15
2022-11-10T01:57:18.800Z,22.70
2022-11-10T01:58:40.981Z,20.40
2022-11-10T01:59:50.348Z,25.05
2022-11-10T02:00:58.613Z,24.15
2022-11-10T02:03:57.942Z,26.52
2022-11-10T02:05:05.465Z,23.60
2022-11-10T02:06:12.731Z,33.63
2022-11-10T02:07:21.689Z,21.25
2022-11-10T02:08:28.592Z,26.50
2022-11-10T02:09:33.428Z,26.70
2022-11-10T02:10:37.947Z,22.50
2022-11-10T02:11:44.096Z,25.48
2022-11-10T02:12:50.642Z,23.90
2022-11-10T02:13:56.289Z,26.83
2022-11-10T02:15:06.230Z,21.40
2022-11-10T02:16:20.151Z,23.90
2022-11-10T02:17:25.402Z,24.17
2022-11-10T02:18:34.219Z,22.60
2022-11-10T02:19:43.145Z,23.73
2022-11-10T02:20:51.085Z,21.80
2022-11-10T02:22:07.949Z,24.70
2022-11-10T02:23:35.940Z,27.35
2022-11-10T02:24:43.686Z,35.88
2022-11-10T02:26:03.135Z,22.80
2022-11-10T02:27:14.411Z,32.78
2022-11-10T02:28:21.563Z,23.58
2022-11-10T02:29:33.202Z,22.88
2022-11-10T02:30:37.767Z,24.77
2022-11-10T02:31:52.939Z,21.23
2022-11-10T02:33:09.290Z,22.42
2022-11-10T02:34:19.077Z,25.38
2022-11-10T02:35:29.266Z,35.03
2022-11-10T02:36:36.295Z,21.38
2022-11-10T02:37:50.294Z,19.83
2022-11-10T02:39:00.476Z,24.00
2022-11-10T02:40:10.807Z,21.50
2022-11-10T02:41:19.909Z,18.50
2022-11-10T02:42:32.644Z,19.50
2022-11-10T02:44:02.429Z,28.10
2022-11-10T02:45:18.663Z,18.45
2022-11-10T02:46:26.912Z,20.42
2022-11-10T02:47:53.472Z,22.05
2022-11-10T02:49:10.531Z,17.15
2022-11-10T02:50:19.404Z,15.98
2022-11-10T02:51:39.141Z,20.85
2022-11-10T02:52:52.653Z,25.33
2022-11-10T02:54:10.506Z,25.60
2022-11-10T02:55:19.391Z,14.02
2022-11-10T02:56:24.236Z,26.27
2022-11-10T02:58:26.474Z,20.90
2022-11-10T02:59:45.660Z,21.10
2022-11-10T03:01:27.917Z,19.48
2022-11-10T03:02:50.682Z,18.83
2022-11-10T03:04:08.002Z,22.08
2022-11-10T03:05:16.772Z,12.85
2022-11-10T03:06:22.149Z,18.90
2022-11-10T03:07:44.880Z,18.08
2022-11-10T03:08:59.013Z,11.95
2022-11-10T03:10:34.185Z,17.05
2022-11-10T03:11:45.517Z,19.02
2022-11-10T03:12:57.403Z,16.17
2022-11-10T03:14:10.969Z,17.13
2022-11-10T03:15:21.282Z,16.48
2022-11-10T03:16:40.249Z,18.38
2022-11-10T03:17:59.427Z,24.35
2022-11-10T03:19:24.471Z,19.88
2022-11-10T03:20:38.201Z,15.07
2022-11-10T03:21:49.363Z,25.45
2022-11-10T03:23:29.048Z,12.05
2022-11-10T03:24:41.015Z,15.07
2022-11-10T03:25:52.184Z,17.42
2022-11-10T03:27:00.892Z,15.65
2022-11-10T03:28:10.228Z,25.05
2022-11-10T03:29:19.541Z,17.50
2022-11-10T03:30:36.150Z,25.70
2022-11-10T03:31:59.542Z,15.50
2022-11-10T03:33:03.340Z,19.77
2022-11-10T03:34:10.652Z,17.17
2022-11-10T03:35:23.760Z,20.45
2022-11-10T03:36:33.723Z,21.88
2022-11-10T03:37:42.491Z,26.15
2022-11-10T03:39:00.629Z,19.98
2022-11-10T03:40:13.583Z,16.20
2022-11-10T03:41:30.452Z,22.27
2022-11-10T03:42:50.585Z,19.05
2022-11-10T03:43:55.549Z,17.55
2022-11-10T03:45:04.862Z,17.75
2022-11-10T03:46:19.412Z,13.15
2022-11-10T03:47:32.191Z,13.65
2022-11-10T03:48:48.753Z,20.42
2022-11-10T03:49:56.415Z,20.23
2022-11-10T03:51:03.100Z,15.30
2022-11-10T03:52:13.423Z,16.17
2022-11-10T03:53:21.777Z,16.92
2022-11-10T03:54:29.480Z,21.65
2022-11-10T03:55:35.789Z,17.05
2022-11-10T03:56:49.008Z,16.05
2022-11-10T03:58:06.322Z,13.95
2022-11-10T03:59:13.599Z,12.43
2022-11-10T04:00:20.881Z,17.08
2022-11-10T04:01:27.464Z,13.18
2022-11-10T04:02:33.455Z,17.35
2022-11-10T04:03:46.198Z,17.08
2022-11-10T04:05:19.952Z,14.20
2022-11-10T04:06:43.005Z,18.17
2022-11-10T04:08:19.474Z,16.13
2022-11-10T04:09:34.693Z,11.75
2022-11-10T04:10:41.182Z,24.30
2022-11-10T04:12:05.689Z,17.45
2022-11-10T04:13:29.817Z,22.95
2022-11-10T04:14:52.318Z,16.00
2022-11-10T04:15:56.204Z,17.80
2022-11-10T04:17:00.627Z,16.02
2022-11-10T04:18:24.846Z,17.33
2022-11-10T04:19:31.161Z,15.43
2022-11-10T04:20:36.371Z,17.23
2022-11-10T04:21:40.450Z,15.75
2022-11-10T04:23:06.779Z,15.85
2022-11-10T04:24:13.519Z,17.63
2022-11-10T04:25:19.040Z,15.25
2022-11-10T04:26:34.773Z,19.02
2022-11-10T04:27:42.749Z,13.23
2022-11-10T04:28:51.922Z,16.42
2022-11-10T04:29:57.820Z,15.18
2022-11-10T04:31:03.349Z,21.08
2022-11-10T04:32:06.998Z,16.73
2022-11-10T04:33:11.488Z,14.93
2022-11-10T04:34:18.140Z,13.25
2022-11-10T04:35:22.046Z,19.60
2022-11-10T04:36:29.960Z,20.23
2022-11-10T04:37:34.267Z,18.35
2022-11-10T04:38:39.177Z,15.13
2022-11-10T04:39:42.828Z,19.42
2022-11-10T04:40:46.796Z,13.88
2022-11-10T04:41:58.447Z,17.23
2022-11-10T04:43:06.366Z,18.15
2022-11-10T04:44:10.313Z,16.40
2022-11-10T04:45:14.227Z,17.20
2022-11-10T04:46:29.770Z,21.85
2022-11-10T04:47:36.089Z,16.15
2022-11-10T04:48:46.752Z,15.98
2022-11-10T04:49:52.945Z,18.00
2022-11-10T04:51:22.963Z,11.80
2022-11-10T04:52:27.515Z,16.27
2022-11-10T04:53:52.217Z,22.30
2022-11-10T04:54:58.114Z,20.63
2022-11-10T04:56:25.076Z,14.85
2022-11-10T04:57:34.057Z,17.20
2022-11-10T04:59:07.559Z,15.10
2022-11-10T05:00:28.823Z,16.27
2022-11-10T05:01:39.342Z,14.73
2022-11-10T05:05:34.886Z,17.67
2022-11-10T05:07:14.816Z,12.32
2022-11-10T05:08:28.951Z,13.77
2022-11-10T05:09:56.804Z,21.55
2022-11-10T05:11:06.927Z,16.48
2022-11-10T05:12:26.325Z,18.08
2022-11-10T05:13:32.998Z,14.55
2022-11-10T05:14:46.514Z,14.50
2022-11-10T05:16:23.035Z,13.90
2022-11-10T05:17:51.314Z,12.98
2022-11-10T05:19:19.063Z,12.02
2022-11-10T05:20:56.234Z,17.98
2022-11-10T05:22:08.358Z,15.13
2022-11-10T05:23:35.001Z,19.02
2022-11-10T05:24:40.677Z,15.18
2022-11-10T05:25:51.793Z,12.75
2022-11-10T05:27:02.106Z,13.93
2022-11-10T05:28:13.623Z,11.50
2022-11-10T05:29:25.312Z,14.52
2022-11-10T05:30:36.681Z,17.38
2022-11-10T05:31:42.383Z,12.38
2022-11-10T05:32:49.859Z,17.77
2022-11-10T05:35:22.097Z,15.20
2022-11-10T05:36:55.431Z,14.68
2022-11-10T05:38:01.026Z,18.05
2022-11-10T05:39:08.899Z,15.32
2022-11-10T05:40:22.067Z,12.70
2022-11-10T05:41:27.705Z,18.38
2022-11-10T05:42:39.074Z,15.60
2022-11-10T05:43:45.133Z,13.43
2022-11-10T05:44:50.711Z,17.15
2022-11-10T05:45:56.053Z,12.60
2022-11-10T05:47:05.224Z,14.93
2022-11-10T05:48:12.760Z,13.20
2022-11-10T05:49:27.137Z,11.95
2022-11-10T05:50:44.834Z,11.32
2022-11-10T05:51:49.988Z,14.32
2022-11-10T05:52:56.099Z,14.32
2022-11-10T05:54:01.048Z,14.27
2022-11-10T05:55:06.032Z,13.70
2022-11-10T05:56:10.381Z,12.05
2022-11-10T05:57:15.548Z,13.77
2022-11-10T05:58:27.843Z,13.57
2022-11-10T05:59:34.255Z,10.75
2022-11-10T06:00:39.607Z,16.40
2022-11-10T06:01:52.063Z,14.20
2022-11-10T06:03:02.494Z,13.70
2022-11-10T06:04:07.006Z,12.93
2022-11-10T06:05:17.790Z,13.20
2022-11-10T06:06:23.105Z,12.90
2022-11-10T06:07:26.722Z,19.15
2022-11-10T06:08:30.472Z,17.83
2022-11-10T06:09:35.829Z,17.92
2022-11-10T06:10:42.051Z,11.82
2022-11-10T06:11:45.690Z,14.70
2022-11-10T06:12:49.383Z,15.18
2022-11-10T06:13:52.879Z,12.90
2022-11-10T06:15:04.443Z,13.68
2022-11-10T06:16:08.827Z,17.58
2022-11-10T06:17:13.475Z,18.33
2022-11-10T06:18:20.042Z,11.55
2022-11-10T06:19:24.467Z,16.52
2022-11-10T06:20:37.671Z,18.35
2022-11-10T06:22:01.354Z,13.52
2022-11-10T06:23:13.202Z,16.50
2022-11-10T06:24:17.302Z,14.50
2022-11-10T06:25:30.425Z,11.15
2022-11-10T06:26:39.404Z,13.40
2022-11-10T06:27:53.303Z,16.83
2022-11-10T06:28:57.935Z,14.63
2022-11-10T06:30:04.730Z,11.10
2022-11-10T06:31:14.695Z,15.15
2022-11-10T06:32:23.356Z,17.45
2022-11-10T06:33:36.081Z,11.23
2022-11-10T06:34:42.160Z,15.80
2022-11-10T06:35:46.827Z,15.98
2022-11-10T06:36:54.000Z,17.02
2022-11-10T06:38:13.488Z,17.83
2022-11-10T06:39:18.332Z,13.20
2022-11-10T06:40:24.344Z,13.90
2022-11-10T06:41:35.427Z,14.35
2022-11-10T06:42:43.731Z,17.85
2022-11-10T06:44:01.603Z,13.15
2022-11-10T06:45:07.006Z,16.15
2022-11-10T06:46:12.547Z,17.85
2022-11-10T06:47:21.671Z,10.93
2022-11-10T06:48:28.200Z,13.77
2022-11-10T06:49:52.607Z,17.17
2022-11-10T06:51:02.214Z,15.25
2022-11-10T06:52:09.769Z,18.33
2022-11-10T06:53:26.851Z,12.55
2022-11-10T06:55:03.468Z,15.82
2022-11-10T06:56:19.209Z,14.10
2022-11-10T06:57:40.748Z,15.05
2022-11-10T06:58:52.003Z,12.02
2022-11-10T07:00:09.029Z,19.80
2022-11-10T07:01:23.354Z,19.67
2022-11-10T07:02:28.202Z,18.38
2022-11-10T07:03:32.245Z,14.57
2022-11-10T07:05:05.478Z,13.35
2022-11-10T07:06:17.668Z,19.77
2022-11-10T07:07:47.801Z,12.65
2022-11-10T07:09:06.030Z,10.93
2022-11-10T07:10:45.258Z,15.45
2022-11-10T07:11:46.653Z,13.32
2022-11-10T07:12:58.935Z,14.77
2022-11-10T07:14:06.093Z,20.63
2022-11-10T07:15:16.476Z,9.43
2022-11-10T07:16:24.357Z,15.43
2022-11-10T07:17:35.710Z,15.55
2022-11-10T07:18:47.649Z,16.90
2022-11-10T07:19:57.618Z,15.65
2022-11-10T07:21:06.076Z,18.15
2022-11-10T07:22:30.406Z,13.82
2022-11-10T07:24:05.671Z,13.88
2022-11-10T07:25:12.643Z,16.10
2022-11-10T07:26:16.221Z,16.98
2022-11-10T07:27:19.994Z,11.20
2022-11-10T07:28:28.195Z,12.20
2022-11-10T07:29:33.367Z,14.10
2022-11-10T07:30:44.914Z,13.27
2022-11-10T07:31:48.508Z,11.27
2022-11-10T07:33:02.345Z,12.18
2022-11-10T07:34:06.188Z,11.30
2022-11-10T07:35:15.766Z,12.18
2022-11-10T07:36:19.403Z,15.00
2022-11-10T07:37:38.267Z,20.98
2022-11-10T07:39:01.600Z,14.82
2022-11-10T07:40:24.464Z,16.75
2022-11-10T07:41:32.300Z,15.90
2022-11-10T07:42:40.838Z,17.67
2022-11-10T07:43:48.821Z,15.63
2022-11-10T07:45:01.845Z,11.93
2022-11-10T07:46:12.654Z,14.48
2022-11-10T07:47:21.099Z,14.68
2022-11-10T07:48:39.414Z,15.27
2022-11-10T07:49:43.124Z,17.67
2022-11-10T07:50:54.208Z,13.40
2022-11-10T07:52:29.679Z,14.57
2022-11-10T07:53:48.238Z,14.43
2022-11-10T07:54:59.433Z,15.32
2022-11-10T07:56:10.674Z,15.57
2022-11-10T07:57:34.002Z,19.98
2022-11-10T07:59:09.438Z,17.98
2022-11-10T08:00:34.367Z,14.45
2022-11-10T08:01:47.485Z,15.48
2022-11-10T08:03:06.907Z,19.27
2022-11-10T08:06:01.720Z,10.55
2022-11-10T08:07:08.876Z,16.05
2022-11-10T08:08:28.679Z,21.02
2022-11-10T08:09:33.788Z,13.80
2022-11-10T08:10:38.827Z,17.90
2022-11-10T08:11:42.559Z,17.77
2022-11-10T08:12:46.322Z,12.00
2022-11-10T08:13:50.077Z,16.67
2022-11-10T08:14:56.937Z,16.67
2022-11-10T08:16:00.693Z,14.20
2022-11-10T08:17:07.693Z,15.30
2022-11-10T08:18:32.361Z,12.43
2022-11-10T08:19:43.812Z,24.13
2022-11-10T08:20:51.685Z,17.80
2022-11-10T08:21:56.121Z,15.27
2022-11-10T08:23:06.045Z,15.40
2022-11-10T08:24:17.902Z,13.48
2022-11-10T08:25:24.081Z,19.98
2022-11-10T08:26:32.323Z,17.95
2022-11-10T08:27:42.493Z,14.57
2022-11-10T08:28:46.993Z,20.25
2022-11-10T08:29:50.986Z,12.80
2022-11-10T08:31:01.607Z,14.40
2022-11-10T08:32:09.485Z,15.82
2022-11-10T08:33:20.042Z,18.70
2022-11-10T08:34:25.313Z,13.88
2022-11-10T08:35:32.402Z,16.00
2022-11-10T08:36:38.368Z,17.55
2022-11-10T08:37:44.323Z,11.75
2022-11-10T08:39:09.518Z,14.05
2022-11-10T08:40:20.796Z,24.75
2022-11-10T08:41:28.493Z,13.65
2022-11-10T08:42:35.672Z,20.05
2022-11-10T08:43:52.281Z,13.77
2022-11-10T08:44:58.621Z,14.52
2022-11-10T08:46:02.485Z,16.58
2022-11-10T08:47:11.886Z,20.08
2022-11-10T08:48:40.534Z,15.57
2022-11-10T08:49:51.743Z,16.30
2022-11-10T08:51:03.580Z,18.13
2022-11-10T08:52:15.241Z,14.95
2022-11-10T08:53:30.329Z,13.57
2022-11-10T08:56:05.826Z,15.77
2022-11-10T08:57:15.380Z,22.73
2022-11-10T08:58:29.732Z,20.60
2022-11-10T08:59:38.048Z,9.95
2022-11-10T09:01:01.108Z,22.15
2022-11-10T09:02:06.879Z,14.90
2022-11-10T09:03:18.902Z,17.67
2022-11-10T09:04:23.689Z,18.95
2022-11-10T09:05:33.362Z,13.45
2022-11-10T09:06:38.986Z,15.55
2022-11-10T09:07:51.452Z,17.30
2022-11-10T09:08:57.328Z,12.00
2022-11-10T09:10:08.688Z,17.40
2022-11-10T09:11:15.311Z,14.15
2022-11-10T09:12:25.670Z,11.32
2022-11-10T09:13:33.629Z,14.38
2022-11-10T09:14:51.754Z,14.48
2022-11-10T09:16:08.615Z,17.50
2022-11-10T09:17:15.918Z,11.18
2022-11-10T09:18:20.475Z,15.60
2022-11-10T09:19:28.683Z,10.57
2022-11-10T09:20:45.045Z,19.20
2022-11-10T09:21:56.044Z,8.88
2022-11-10T09:23:36.268Z,12.95
2022-11-10T09:24:55.306Z,16.00
2022-11-10T09:26:10.673Z,11.07
2022-11-10T09:27:18.317Z,11.18
2022-11-10T09:28:35.377Z,9.93
2022-11-10T09:29:43.833Z,22.00
2022-11-10T09:30:52.151Z,20.17
2022-11-10T09:32:03.431Z,14.20
2022-11-10T09:33:09.804Z,13.25
2022-11-10T09:34:15.273Z,12.98
2022-11-10T09:35:19.879Z,21.95
2022-11-10T09:36:26.446Z,11.43
2022-11-10T09:37:41.453Z,13.55
2022-11-10T09:38:48.168Z,12.23
2022-11-10T09:39:55.897Z,23.50
2022-11-10T09:41:16.014Z,21.98
2022-11-10T09:42:41.793Z,15.25
2022-11-10T09:44:06.563Z,10.55
2022-11-10T09:45:39.634Z,15.30
2022-11-10T09:46:59.254Z,14.00
2022-11-10T09:48:33.193Z,14.35
2022-11-10T09:49:57.214Z,13.98
2022-11-10T09:51:15.841Z,24.90
2022-11-10T09:52:44.043Z,13.90
2022-11-10T09:54:04.658Z,16.33
2022-11-10T09:55:40.835Z,12.57
2022-11-10T09:56:45.726Z,21.83
2022-11-10T09:58:06.705Z,14.00
2022-11-10T09:59:26.617Z,13.90
2022-11-10T10:00:38.312Z,15.73
2022-11-10T10:01:50.905Z,13.68
2022-11-10T10:03:32.059Z,15.10
2022-11-10T10:05:26.533Z,14.02
2022-11-10T10:06:49.917Z,13.10
2022-11-10T10:08:12.360Z,18.00
2022-11-10T10:09:42.813Z,19.13
2022-11-10T10:11:19.259Z,14.65
2022-11-10T10:13:27.889Z,14.18
2022-11-10T10:15:13.812Z,14.20
2022-11-10T10:16:32.160Z,16.42
2022-11-10T10:17:49.511Z,12.95
2022-11-10T10:19:38.706Z,15.45
2022-11-10T10:21:23.135Z,15.52
2022-11-10T10:23:01.578Z,22.00
2022-11-10T10:24:21.558Z,13.50
2022-11-10T10:25:28.581Z,20.45
2022-11-10T10:26:59.740Z,14.65
2022-11-10T10:28:26.056Z,11.57
2022-11-10T10:29:50.424Z,15.63
2022-11-10T10:31:13.248Z,14.15
2022-11-10T10:32:22.787Z,13.68
2022-11-10T10:33:31.790Z,15.38
2022-11-10T10:34:36.699Z,15.40
2022-11-10T10:35:43.498Z,15.57
2022-11-10T10:36:59.279Z,15.68
2022-11-10T10:38:24.662Z,14.27
2022-11-10T10:39:45.156Z,17.02
2022-11-10T10:41:04.204Z,17.75
2022-11-10T10:42:48.995Z,12.95
2022-11-10T10:44:27.065Z,19.05
2022-11-10T10:46:30.286Z,15.98
2022-11-10T10:47:41.161Z,15.70
2022-11-10T10:48:50.556Z,14.07
2022-11-10T10:51:00.330Z,17.58
2022-11-10T10:52:17.595Z,14.15
2022-11-10T10:53:29.002Z,12.30
2022-11-10T10:55:17.836Z,12.13
2022-11-10T10:56:34.809Z,19.70
2022-11-10T10:58:13.454Z,15.02
2022-11-10T10:59:28.804Z,13.63
2022-11-10T11:00:50.706Z,12.02
2022-11-10T11:02:03.346Z,20.33
2022-11-10T11:03:43.745Z,14.15
2022-11-10T11:06:56.725Z,16.25
2022-11-10T11:08:05.154Z,13.93
2022-11-10T11:09:24.813Z,16.15
2022-11-10T11:10:45.261Z,14.55
2022-11-10T11:12:22.839Z,17.45
2022-11-10T11:13:32.423Z,19.17
2022-11-10T11:14:40.689Z,10.18
2022-11-10T11:16:05.686Z,12.95
2022-11-10T11:17:24.453Z,12.23
2022-11-10T11:18:40.085Z,14.75
2022-11-10T11:19:45.502Z,10.32
2022-11-10T11:21:20.255Z,10.93
2022-11-10T11:22:52.181Z,14.63
2022-11-10T11:24:21.762Z,14.38
2022-11-10T11:25:43.138Z,16.00
2022-11-10T11:27:04.141Z,10.30
2022-11-10T11:28:51.597Z,20.83
2022-11-10T11:30:37.173Z,12.52
2022-11-10T11:32:21.661Z,8.68
2022-11-10T11:33:42.428Z,12.80
2022-11-10T11:35:04.842Z,12.60
2022-11-10T11:36:33.426Z,19.67
2022-11-10T11:38:14.382Z,16.48
2022-11-10T11:40:15.190Z,11.23
2022-11-10T11:41:50.304Z,17.50
2022-11-10T11:43:49.481Z,13.80
2022-11-10T11:45:47.155Z,9.95
2022-11-10T11:47:35.359Z,17.00
2022-11-10T11:49:27.783Z,13.48
2022-11-10T11:51:36.151Z,11.13
2022-11-10T11:53:23.934Z,16.63
2022-11-10T11:54:57.286Z,9.98
2022-11-10T11:56:06.720Z,15.18
2022-11-10T11:57:55.990Z,12.63
2022-11-10T11:59:26.455Z,8.15
2022-11-10T12:01:08.763Z,15.68
2022-11-10T12:02:52.461Z,13.45
2022-11-10T12:04:25.274Z,12.75
2022-11-10T12:05:51.697Z,11.57
2022-11-10T12:07:31.827Z,15.95
2022-11-10T12:08:59.438Z,13.52
2022-11-10T12:10:29.751Z,19.42
2022-11-10T12:12:17.628Z,15.07
2022-11-10T12:13:43.058Z,16.33
2022-11-10T12:14:57.785Z,7.00
2022-11-10T12:16:33.552Z,12.50
2022-11-10T12:18:34.918Z,11.63
2022-11-10T12:20:02.592Z,15.25
2022-11-10T12:21:21.850Z,14.05
2022-11-10T12:23:18.356Z,12.68
2022-11-10T12:24:45.375Z,11.55
2022-11-10T12:26:35.376Z,19.73
2022-11-10T12:27:56.283Z,13.75
2022-11-10T12:29:18.455Z,15.93
2022-11-10T12:30:26.238Z,20.40
2022-11-10T12:31:39.838Z,18.02
2022-11-10T12:33:22.604Z,14.73
2022-11-10T12:34:57.799Z,14.40
2022-11-10T12:36:14.739Z,13.68
2022-11-10T12:37:50.101Z,18.48
2022-11-10T12:39:29.766Z,13.52
2022-11-10T12:40:58.245Z,13.68
2022-11-10T12:42:12.425Z,15.90
2022-11-10T12:44:03.249Z,17.90
2022-11-10T12:45:55.755Z,19.45
2022-11-10T12:47:06.370Z,10.60
2022-11-10T12:48:30.860Z,12.65
2022-11-10T12:50:10.632Z,19.45
2022-11-10T12:51:51.621Z,12.35
2022-11-10T12:53:51.371Z,12.30
2022-11-10T12:55:05.912Z,14.35
2022-11-10T12:56:31.250Z,23.95
2022-11-10T12:57:53.484Z,16.05
2022-11-10T12:59:21.787Z,17.88
2022-11-10T13:00:42.078Z,16.52
2022-11-10T13:02:08.382Z,18.45
2022-11-10T13:03:39.438Z,9.02
2022-11-10T13:05:31.052Z,12.55
2022-11-10T13:06:37.321Z,12.73
2022-11-10T13:08:22.665Z,15.52
2022-11-10T13:09:41.123Z,13.93
2022-11-10T13:11:12.362Z,12.88
2022-11-10T13:12:26.602Z,14.45
2022-11-10T13:13:59.957Z,12.10
2022-11-10T13:15:39.628Z,11.73
2022-11-10T13:16:45.396Z,12.85
2022-11-10T13:17:51.139Z,14.27
2022-11-10T13:18:57.503Z,15.85
2022-11-10T13:20:30.053Z,15.50
2022-11-10T13:21:51.627Z,18.15
2022-11-10T13:22:56.916Z,19.77
2022-11-10T13:24:02.743Z,13.43
2022-11-10T13:25:40.715Z,10.40
2022-11-10T13:26:44.595Z,16.42
2022-11-10T13:27:53.519Z,23.65
2022-11-10T13:29:00.457Z,11.77
2022-11-10T13:30:43.696Z,12.63
2022-11-10T13:31:59.879Z,15.13
2022-11-10T13:33:29.811Z,13.48
2022-11-10T13:34:46.320Z,20.35
2022-11-10T13:35:57.951Z,11.98
2022-11-10T13:37:04.005Z,14.57
2022-11-10T13:38:46.789Z,12.68
2022-11-10T13:40:40.729Z,11.88
2022-11-10T13:42:17.541Z,15.10
2022-11-10T13:43:27.326Z,13.48
2022-11-10T13:44:43.418Z,15.30
2022-11-10T13:45:48.286Z,15.25
2022-11-10T13:47:38.923Z,14.05
2022-11-10T13:49:04.357Z,13.63
2022-11-10T13:50:23.902Z,15.73
2022-11-10T13:52:06.075Z,16.63
2022-11-10T13:53:51.209Z,14.75
2022-11-10T13:55:50.757Z,15.45
2022-11-10T13:57:24.625Z,13.82
2022-11-10T13:58:34.768Z,11.90
2022-11-10T14:00:01.477Z,21.73
2022-11-10T14:01:17.420Z,13.02
2022-11-10T14:02:45.772Z,17.73
2022-11-10T14:03:57.502Z,13.68
2022-11-10T14:05:03.232Z,20.00
2022-11-10T14:06:30.537Z,11.68
2022-11-10T14:07:46.455Z,14.10
2022-11-10T14:09:10.667Z,14.50
2022-11-10T14:10:56.029Z,17.52
2022-11-10T14:12:17.705Z,11.27
2022-11-10T14:13:49.045Z,15.65
2022-11-10T14:15:31.647Z,11.00
2022-11-10T14:16:43.188Z,12.32
2022-11-10T14:17:56.298Z,14.15
2022-11-10T14:19:39.368Z,12.20
2022-11-10T14:20:47.007Z,15.45
2022-11-10T14:22:07.711Z,17.48
2022-11-10T14:23:45.094Z,10.40
2022-11-10T14:25:31.074Z,14.18
2022-11-10T14:26:59.204Z,12.45
2022-11-10T14:28:23.622Z,10.90
2022-11-10T14:29:47.624Z,10.98
2022-11-10T14:30:55.888Z,16.63
2022-11-10T14:32:04.466Z,14.15
2022-11-10T14:33:14.511Z,16.88
2022-11-10T14:34:19.948Z,9.48
2022-11-10T14:35:30.944Z,13.55
2022-11-10T14:36:35.453Z,15.73
2022-11-10T14:37:46.356Z,9.75
2022-11-10T14:39:07.014Z,13.27
2022-11-10T14:40:22.873Z,13.98
2022-11-10T14:41:28.025Z,11.93
2022-11-10T14:42:37.823Z,17.42
2022-11-10T14:44:08.204Z,14.38
2022-11-10T14:45:29.202Z,13.98
2022-11-10T14:46:49.526Z,17.25
2022-11-10T14:47:57.890Z,14.05
2022-11-10T14:49:05.478Z,12.38
2022-11-10T14:50:16.292Z,13.85
2022-11-10T14:51:23.718Z,13.15
2022-11-10T14:52:28.544Z,10.02
2022-11-10T14:53:53.261Z,12.65
2022-11-10T14:54:59.898Z,13.70
2022-11-10T14:56:16.802Z,12.82
2022-11-10T14:57:21.210Z,20.08
2022-11-10T14:58:36.451Z,11.57
2022-11-10T14:59:41.148Z,9.05
2022-11-10T15:00:53.098Z,11.98
2022-11-10T15:02:14.305Z,13.02
2022-11-10T15:03:40.569Z,12.48
2022-11-10T15:05:02.155Z,15.65
2022-11-10T15:06:20.189Z,11.50
2022-11-10T15:07:37.726Z,14.15
2022-11-10T15:08:44.878Z,13.82
2022-11-10T15:10:24.116Z,16.98
2022-11-10T15:12:18.287Z,18.25
2022-11-10T15:13:34.814Z,10.57
2022-11-10T15:14:47.301Z,13.20
2022-11-10T15:16:39.129Z,17.20
2022-11-10T15:17:58.969Z,14.23
2022-11-10T15:19:32.374Z,11.43
2022-11-10T15:20:43.746Z,17.80
2022-11-10T15:21:53.624Z,11.32
2022-11-10T15:23:36.877Z,12.73
2022-11-10T15:24:50.382Z,14.00
2022-11-10T15:25:57.932Z,13.80
2022-11-10T15:27:07.032Z,12.90
2022-11-10T15:28:14.226Z,16.60
2022-11-10T15:29:24.371Z,12.60
2022-11-10T15:30:34.295Z,13.35
2022-11-10T15:31:45.254Z,13.27
2022-11-10T15:32:51.458Z,10.82
2022-11-10T15:34:02.886Z,15.70
2022-11-10T15:35:32.823Z,10.25
2022-11-10T15:36:40.819Z,15.77
2022-11-10T15:38:20.658Z,13.98
2022-11-10T15:39:38.899Z,14.52
2022-11-10T15:40:53.533Z,16.45
2022-11-10T15:42:37.314Z,10.88
2022-11-10T15:43:41.551Z,12.48
2022-11-10T15:44:47.109Z,17.75
2022-11-10T15:46:19.643Z,14.65
2022-11-10T15:47:29.690Z,10.77
2022-11-10T15:48:57.711Z,11.82
2022-11-10T15:50:16.827Z,14.07
2022-11-10T15:51:26.328Z,13.98
2022-11-10T15:52:44.881Z,12.05
2022-11-10T15:53:52.158Z,15.70
2022-11-10T15:54:59.512Z,13.32
2022-11-10T15:56:07.120Z,14.27
2022-11-10T15:57:18.381Z,12.38
2022-11-10T15:58:41.492Z,14.93
2022-11-10T15:59:55.692Z,9.25
2022-11-10T16:01:06.042Z,12.68
2022-11-10T16:02:25.550Z,11.93
2022-11-10T16:03:48.503Z,13.25
2022-11-10T16:05:09.564Z,13.63
2022-11-10T16:06:21.761Z,15.18
2022-11-10T16:07:26.255Z,11.35
2022-11-10T16:08:32.275Z,14.32
2022-11-10T16:09:36.677Z,13.63
2022-11-10T16:10:45.749Z,10.23
2022-11-10T16:11:52.259Z,14.25
2022-11-10T16:12:56.465Z,13.88
2022-11-10T16:14:02.456Z,8.38
2022-11-10T16:15:15.885Z,19.88
2022-11-10T16:16:20.989Z,11.75
2022-11-10T16:17:25.215Z,11.55
2022-11-10T16:18:33.040Z,12.57
2022-11-10T16:19:36.698Z,10.65
2022-11-10T16:20:40.993Z,11.32
2022-11-10T16:21:47.228Z,10.88
2022-11-10T16:23:12.654Z,10.15
2022-11-10T16:24:23.334Z,12.52
2022-11-10T16:25:31.657Z,8.52
2022-11-10T16:26:35.611Z,12.80
2022-11-10T16:27:43.309Z,8.15
2022-11-10T16:28:48.738Z,8.75
2022-11-10T16:29:52.342Z,13.80
2022-11-10T16:31:00.391Z,10.05
2022-11-10T16:32:11.961Z,10.25
2022-11-10T16:33:19.606Z,8.02
2022-11-10T16:34:23.802Z,15.00
2022-11-10T16:35:28.287Z,9.90
2022-11-10T16:36:44.766Z,13.18
2022-11-10T16:37:56.649Z,13.57
2022-11-10T16:39:15.377Z,15.43
2022-11-10T16:40:24.747Z,10.60
2022-11-10T16:41:33.067Z,15.18
2022-11-10T16:42:45.136Z,12.25
2022-11-10T16:43:57.209Z,8.95
2022-11-10T16:45:04.920Z,12.10
2022-11-10T16:46:37.610Z,11.80
2022-11-10T16:47:42.305Z,13.48
2022-11-10T16:48:50.894Z,15.18
2022-11-10T16:49:56.114Z,10.70
2022-11-10T16:51:03.032Z,8.85